Latest Weather Observations for Proserpine

IDQ60801

Issued at 9:05 pm EST Tuesday 16 September 2014 (issued every 30 minutes, with the page automatically refreshed every 10 minutes)

About weather observations | Map of weather stations | Latest weather observations for QLD | Other Formats
Station Details ID: 033247 Name: PROSERPINE AIRPORT Lat: -20.49 Lon: 148.56 Height: 19.7 m
Data from the previous 72 hours. | See also: Recent months at Proserpine
Date/Time
EST
Temp
°C
App
Temp
°C
Dew
Point
Rel
Hum
%
Delta-T
°C
Wind Press
QNH
hPa
Press
MSL
hPa
Rain
since 9 am
mm
Dir
 
Spd
km/h
Gust
km/h
Spd
kts
Gust
kts
16/09:00pm 14.6 14.3 12.8 89 1.0 SW 6 7 3 4 1017.1 1017.0 0.0
16/08:30pm 14.8 15.6 12.5 86 1.3 SSW 0 0 0 0 1016.8 - 0.0
16/08:00pm 16.1 17.1 13.2 83 1.6 CALM 0 0 0 0 1016.6 - 0.0
16/07:30pm 17.4 17.4 13.7 79 2.1 S 6 9 3 5 1016.1 - 0.0
16/07:00pm 18.8 17.8 14.7 77 2.4 ESE 13 15 7 8 1015.6 - 0.0
16/06:30pm 19.5 19.0 13.9 70 3.2 ESE 9 11 5 6 1015.1 - 0.0
16/06:00pm 21.5 19.5 11.5 53 5.6 ESE 13 17 7 9 1014.6 1014.4 0.0
16/05:30pm 23.7 20.3 10.4 43 7.3 E 19 26 10 14 1014.2 - 0.0
16/05:00pm 25.1 20.1 6.3 30 9.7 E 22 30 12 16 1014.0 - 0.0
16/04:30pm 26.2 20.7 5.7 27 10.6 ESE 24 30 13 16 1013.9 - 0.0
16/04:00pm 26.2 21.3 6.8 29 10.2 ESE 22 32 12 17 1014.0 - 0.0
16/03:30pm 26.9 21.3 5.2 25 11.1 E 24 35 13 19 1014.0 - 0.0
16/03:00pm 27.6 22.5 5.8 25 11.3 E 22 32 12 17 1014.0 1014.0 0.0
16/02:30pm 27.3 21.9 4.4 23 11.6 E 22 33 12 18 1014.4 - 0.0
16/02:00pm 28.4 24.4 9.2 30 10.6 E 20 28 11 15 1014.7 - 0.0
16/01:30pm 27.5 22.7 5.7 25 11.3 E 20 26 11 14 1015.1 - 0.0
16/01:00pm 28.2 23.7 6.9 26 11.3 ESE 20 28 11 15 1015.6 - 0.0
16/12:30pm 27.3 23.5 9.2 32 10.0 E 19 32 10 17 1016.0 - 0.0
16/12:00pm 26.8 23.8 12.1 40 8.5 ESE 19 30 10 16 1016.4 1016.3 0.0
16/11:30am 25.6 22.8 13.1 46 7.3 ESE 20 28 11 15 1016.8 - 0.0
16/11:00am 25.7 24.8 14.8 51 6.5 E 13 22 7 12 1017.4 - 0.0
16/10:30am 24.7 23.8 14.8 54 5.9 ESE 13 19 7 10 1017.9 - 0.0
16/10:00am 24.2 24.2 15.1 56 5.5 E 9 20 5 11 1018.2 - 0.0
16/09:30am 23.5 23.1 16.1 63 4.5 ESE 13 19 7 10 1018.5 - 0.0
16/09:00am 22.4 22.2 15.7 66 4.0 SE 11 19 6 10 1018.5 1018.3 0.0
16/08:30am 21.2 22.1 16.0 72 3.1 SSE 6 11 3 6 1018.5 - 0.0
16/08:00am 18.6 19.2 15.7 83 1.7 S 7 9 4 5 1018.5 - 0.0
16/07:30am 16.1 16.4 15.1 94 0.6 S 7 11 4 6 1018.2 - 0.0
16/07:00am 14.2 14.3 13.9 98 0.2 SW 6 7 3 4 1017.7 - 0.0
16/06:37am 12.6 13.4 12.4 99 0.1 CALM 0 2 0 1 1017.6 - 0.0
16/06:30am 12.1 12.3 11.8 98 0.2 S 2 6 1 3 1017.5 - 0.0
16/06:18am 11.3 11.6 10.8 97 0.3 CALM 0 0 0 0 1017.3 - 0.0
16/06:00am 12.0 11.8 11.7 98 0.2 SSW 4 7 2 4 1017.1 1017.0 0.0
16/05:30am 11.6 12.0 11.3 98 0.2 CALM 0 0 0 0 1017.0 - 0.0
16/05:27am 11.3 11.6 11.0 98 0.2 CALM 0 0 0 0 1016.9 - 0.0
16/05:00am 10.8 10.9 10.2 96 0.3 CALM 0 0 0 0 1016.8 - 0.0
16/04:30am 12.7 13.5 12.4 98 0.2 CALM 0 2 0 1 1016.7 - 0.0
16/04:26am 12.7 13.5 12.4 98 0.2 CALM 0 2 0 1 1016.7 - 0.0
16/04:00am 12.5 13.2 12.2 98 0.2 CALM 0 4 0 2 1016.5 - 0.0
16/03:48am 12.5 12.4 12.0 97 0.3 NNE 4 7 2 4 1016.3 - 0.0
16/03:37am 12.8 13.1 12.3 97 0.3 SW 2 7 1 4 1016.3 - 0.0
16/03:30am 12.0 12.4 11.1 94 0.5 CALM 0 0 0 0 1016.3 - 0.0
16/03:00am 14.2 14.2 13.7 97 0.3 SSW 6 7 3 4 1016.4 1016.3 0.0
16/02:30am 14.0 13.9 13.4 96 0.3 SSW 6 9 3 5 1016.3 - 0.0
16/02:26am 14.0 14.3 13.4 96 0.3 SSW 4 9 2 5 1016.3 - 0.0
16/02:00am 14.7 16.0 14.1 96 0.3 CALM 0 0 0 0 1016.5 - 0.0
16/01:51am 14.6 15.1 14.0 96 0.3 SW 4 6 2 3 1016.5 - 0.0
16/01:30am 14.9 15.5 14.3 96 0.3 SSW 4 7 2 4 1016.7 - 0.0
16/01:00am 14.9 14.2 14.3 96 0.3 SSW 11 13 6 7 1016.8 - 0.0
16/12:30am 15.2 14.6 14.6 96 0.3 SW 11 13 6 7 1017.0 - 0.0
16/12:00am 15.5 15.0 14.9 96 0.3 SSW 11 13 6 7 1017.2 1017.1 0.0
 
Date/Time
EST
Temp
°C
App
Temp
°C
Dew
Point
Rel
Hum
%
Delta-T
°C
Wind Press
QNH
hPa
Press
MSL
hPa
Rain
since 9 am
mm
Dir
 
Spd
km/h
Gust
km/h
Spd
kts
Gust
kts
15/11:30pm 15.6 15.1 14.8 95 0.5 SSW 11 13 6 7 1017.2 - 0.0
15/11:00pm 15.9 15.8 14.9 94 0.6 SSW 9 11 5 6 1017.3 - 0.0
15/10:30pm 16.4 16.8 15.3 93 0.6 S 7 9 4 5 1017.2 - 0.0
15/10:00pm 16.8 17.9 15.7 93 0.6 S 4 6 2 3 1017.4 - 0.0
15/09:30pm 16.9 17.0 15.4 91 0.9 SSW 9 13 5 7 1017.4 - 0.0
15/09:00pm 17.5 19.2 15.1 86 1.4 CALM 0 0 0 0 1017.4 1017.3 0.0
15/08:30pm 18.5 19.4 16.1 86 1.4 SSW 6 7 3 4 1017.2 - 0.0
15/08:00pm 19.0 20.4 16.4 85 1.6 SE 4 7 2 4 1017.1 - 0.0
15/07:30pm 19.5 19.7 16.7 84 1.7 ESE 11 17 6 9 1016.7 - 0.0
15/07:00pm 19.6 19.7 16.6 83 1.8 ESE 11 15 6 8 1016.5 - 0.0
15/06:30pm 20.0 20.1 16.6 81 2.1 ESE 11 17 6 9 1016.1 - 0.0
15/06:00pm 20.9 20.1 16.1 74 2.9 ESE 15 20 8 11 1015.8 1015.7 0.0
15/05:30pm 22.0 20.4 16.1 69 3.6 ESE 19 26 10 14 1015.4 - 0.0
15/05:00pm 23.0 21.0 16.5 67 4.0 E 22 30 12 16 1015.1 - 0.0
15/04:30pm 23.6 21.7 16.6 65 4.3 E 22 30 12 16 1014.9 - 0.0
15/04:00pm 24.4 22.5 16.6 61 4.8 ESE 22 32 12 17 1014.7 - 0.0
15/03:30pm 24.9 22.3 15.8 57 5.5 E 24 32 13 17 1014.5 - 0.0
15/03:00pm 25.4 21.9 15.4 54 6.0 E 28 39 15 21 1014.7 1014.6 0.0
15/02:30pm 26.6 23.5 14.4 47 7.3 E 24 35 13 19 1014.8 - 0.0
15/02:00pm 26.7 23.7 13.8 45 7.6 E 22 32 12 17 1015.1 - 0.0
15/01:30pm 26.4 24.1 15.8 52 6.5 E 22 33 12 18 1015.4 - 0.0
15/01:00pm 25.8 22.7 14.6 50 6.7 E 24 35 13 19 1015.7 - 0.0
15/12:30pm 26.1 23.7 15.5 52 6.4 E 22 33 12 18 1016.1 - 0.0
15/12:00pm 25.9 23.0 16.2 55 5.9 ESE 26 41 14 22 1016.5 1016.4 0.0
15/11:30am 26.0 23.4 16.0 54 6.1 SE 24 35 13 19 1016.9 - 0.0
15/11:00am 25.4 22.5 16.0 56 5.7 SE 26 39 14 21 1017.5 - 0.0
15/10:30am 25.1 22.7 16.3 58 5.4 ESE 24 35 13 19 1018.0 - 0.0
15/10:00am 24.9 22.4 16.1 58 5.4 ESE 24 32 13 17 1018.2 - 0.0
15/09:30am 23.8 21.0 15.3 59 5.1 ESE 24 37 13 20 1018.6 - 0.0
15/09:00am 23.4 20.8 16.0 63 4.5 ESE 24 32 13 17 1018.7 1018.6 0.0
15/08:30am 23.5 22.7 17.0 67 4.0 SSE 17 22 9 12 1018.7 - 0.0
15/08:00am 20.9 19.5 16.5 76 2.7 S 19 28 10 15 1018.6 - 0.0
15/07:30am 19.1 19.4 16.9 87 1.3 S 11 15 6 8 1018.4 - 0.0
15/07:00am 16.6 16.4 15.8 95 0.5 SSW 11 13 6 7 1018.1 - 0.0
15/06:30am 15.5 14.7 15.2 98 0.2 SSW 13 15 7 8 1017.9 - 0.0
15/06:00am 14.8 14.1 14.3 97 0.3 SSW 11 13 6 7 1017.5 1017.4 0.0
15/05:30am 14.9 13.8 14.4 97 0.3 SSW 13 15 7 8 1017.4 - 0.0
15/05:00am 14.8 14.5 14.3 97 0.3 SSW 9 11 5 6 1017.1 - 0.0
15/04:30am 15.0 14.4 14.5 97 0.3 SW 11 13 6 7 1017.1 - 0.0
15/04:00am 15.1 14.1 14.6 97 0.3 SSW 13 15 7 8 1016.9 - 0.0
15/03:30am 15.3 15.0 14.5 95 0.5 SSW 9 11 5 6 1016.9 - 0.0
15/03:00am 16.2 16.2 15.1 93 0.6 S 9 11 5 6 1017.0 1016.9 0.0
15/02:30am 17.5 16.4 15.3 87 1.3 S 15 19 8 10 1017.1 - 0.0
15/02:00am 17.7 16.9 16.0 90 1.0 S 15 20 8 11 1017.0 - 0.0
15/01:30am 17.5 17.0 15.8 90 1.0 S 13 19 7 10 1017.4 - 0.0
15/01:00am 17.8 16.9 15.8 88 1.2 SSE 15 20 8 11 1017.7 - 0.0
15/12:30am 18.0 16.5 16.2 89 1.1 S 19 22 10 12 1017.8 - 0.0
15/12:00am 17.5 16.5 15.7 89 1.1 S 15 20 8 11 1018.1 1018.0 0.0
 
Date/Time
EST
Temp
°C
App
Temp
°C
Dew
Point
Rel
Hum
%
Delta-T
°C
Wind Press
QNH
hPa
Press
MSL
hPa
Rain
since 9 am
mm
Dir
 
Spd
km/h
Gust
km/h
Spd
kts
Gust
kts
14/11:30pm 16.2 15.2 14.6 90 0.9 S 13 17 7 9 1018.4 - 0.0
14/11:00pm 16.4 16.7 14.4 88 1.1 SW 6 7 3 4 1018.6 - 0.0
14/10:30pm 16.4 15.6 14.1 86 1.3 S 11 13 6 7 1018.3 - 0.0
14/10:00pm 17.5 16.9 14.6 83 1.7 S 11 13 6 7 1018.4 - 0.0
14/09:30pm 18.4 18.1 15.5 83 1.7 S 11 15 6 8 1018.4 - 0.0
14/09:00pm 18.3 18.0 15.4 83 1.7 S 11 13 6 7 1018.4 1018.2 0.0
14/08:30pm 18.9 19.7 15.8 82 1.8 S 6 7 3 4 1018.3 - 0.0
14/08:00pm 19.3 18.8 16.0 81 2.0 SE 13 17 7 9 1018.2 - 0.0
14/07:30pm 19.8 19.1 16.3 80 2.1 ESE 15 19 8 10 1018.0 - 0.0
14/07:00pm 20.3 18.7 16.1 77 2.5 ESE 19 26 10 14 1017.7 - 0.0
14/06:30pm 20.5 19.2 15.9 75 2.8 ESE 17 26 9 14 1017.5 - 0.0
14/06:00pm 21.1 19.1 15.6 71 3.3 ESE 20 30 11 16 1017.3 1017.1 0.0
14/05:30pm 21.9 19.6 15.7 68 3.7 ESE 22 33 12 18 1017.1 - 0.0
14/05:00pm 23.0 20.1 15.1 61 4.7 ESE 24 33 13 18 1016.9 - 0.0
14/04:30pm 23.1 19.3 14.7 59 5.0 ESE 28 39 15 21 1016.8 - 0.0
14/04:00pm 23.8 19.4 14.2 55 5.7 ESE 30 39 16 21 1016.4 - 0.0
14/03:30pm 24.6 20.8 14.7 54 5.9 ESE 28 37 15 20 1016.3 - 0.0
14/03:00pm 24.7 20.8 14.5 53 6.1 ESE 28 41 15 22 1016.4 1016.2 0.0
14/02:30pm 25.1 20.9 13.6 49 6.7 E 28 41 15 22 1016.7 - 0.0
14/02:00pm 24.8 20.2 13.4 49 6.7 ESE 30 41 16 22 1016.9 - 0.0
14/01:30pm 25.6 21.0 13.5 47 7.1 ESE 30 43 16 23 1017.1 - 0.0
14/01:00pm 25.7 20.9 12.9 45 7.4 ESE 30 44 16 24 1017.4 - 0.0
14/12:34pm 25.4 21.2 13.6 48 6.9 ESE 28 46 15 25 1017.9 - 0.0
14/12:30pm 25.7 21.3 14.2 49 6.8 ESE 30 46 16 25 1018.0 - 0.0
14/12:00pm 25.2 20.1 13.1 47 7.0 ESE 32 44 17 24 1018.3 1018.3 0.0
14/11:30am 25.2 20.6 13.4 48 6.9 ESE 30 43 16 23 1018.7 - 0.0
14/11:00am 25.8 22.2 15.2 52 6.4 ESE 28 48 15 26 1019.1 - 0.0
14/10:57am 24.7 20.3 14.2 52 6.2 ESE 30 48 16 26 1019.2 - 0.0
14/10:30am 24.8 20.4 14.0 51 6.4 SE 30 41 16 22 1019.4 - 0.0
14/10:00am 24.2 19.2 13.4 51 6.3 ESE 32 41 17 22 1019.6 - 0.0
14/09:30am 23.5 18.5 13.4 53 5.9 SE 32 41 17 22 1019.6 - 0.0
14/09:00am 23.4 18.8 14.7 58 5.1 SE 32 43 17 23 1019.4 1019.3 0.0
14/08:30am 22.5 20.7 15.6 65 4.1 SSE 19 30 10 16 1019.3 - 0.0
14/08:00am 20.6 17.7 15.2 71 3.2 S 24 32 13 17 1019.1 - 0.0
14/07:30am 19.3 17.9 15.6 79 2.2 S 17 22 9 12 1018.9 - 0.0
14/07:00am 17.4 17.9 15.6 89 1.1 SSW 7 11 4 6 1018.8 - 0.0
14/06:30am 15.5 15.6 14.4 93 0.6 SSW 7 9 4 5 1018.5 - 0.0
14/06:00am 15.1 14.3 14.0 93 0.6 SSW 11 13 6 7 1018.1 1018.0 0.0
14/05:30am 15.8 15.2 14.7 93 0.6 S 11 17 6 9 1017.8 - 0.0
14/05:00am 15.3 14.5 14.0 92 0.7 S 11 15 6 8 1017.6 - 0.0
14/04:30am 16.7 15.7 14.7 88 1.2 S 13 19 7 10 1017.4 - 0.0
14/04:00am 17.1 15.9 15.1 88 1.2 S 15 20 8 11 1017.2 - 0.0
14/03:30am 17.4 15.6 15.4 88 1.2 SSE 19 24 10 13 1017.2 - 0.0
14/03:00am 17.4 15.6 15.6 89 1.1 SSE 19 24 10 13 1017.5 1017.5 0.0
14/02:30am 17.4 15.6 15.6 89 1.1 SSE 19 24 10 13 1017.8 - 0.0
14/02:00am 17.3 16.3 15.6 90 1.0 S 15 20 8 11 1018.3 - 0.0
14/01:30am 16.1 15.4 15.3 95 0.5 SSW 13 15 7 8 1018.8 - 0.0
14/01:00am 15.9 15.4 14.9 94 0.6 SSW 11 13 6 7 1019.2 - 0.0
14/12:30am 16.7 16.3 15.1 90 0.9 S 11 15 6 8 1019.5 - 0.0
14/12:00am 17.0 16.4 15.7 92 0.8 S 13 15 7 8 1019.7 1019.6 0.0
 
Date/Time
EST
Temp
°C
App
Temp
°C
Dew
Point
Rel
Hum
%
Delta-T
°C
Wind Press
QNH
hPa
Press
MSL
hPa
Rain
since 9 am
mm
Dir
 
Spd
km/h
Gust
km/h
Spd
kts
Gust
kts
13/11:30pm 17.7 16.7 15.7 88 1.2 S 15 19 8 10 1019.9 - 0.0
13/11:00pm 18.1 17.2 15.9 87 1.3 S 15 22 8 12 1020.0 - 0.0
13/10:30pm 18.1 17.1 15.7 86 1.4 S 15 20 8 11 1020.1 - 0.0
13/10:00pm 18.4 17.4 15.5 83 1.7 S 15 19 8 10 1020.1 - 0.0
13/09:30pm 19.1 17.8 15.8 81 2.0 SSE 17 22 9 12 1020.2 - 0.0

Other Formats:

Comma delimited format used in spreadsheet applications
http://www.bom.gov.au/fwo/IDQ60801/IDQ60801.94365.axf

JavaScript Object Notation format (JSON) in row-major order
http://www.bom.gov.au/fwo/IDQ60801/IDQ60801.94365.json